createdAt,value
2023-04-13T00:01:17.607Z,1.97
2023-04-13T00:03:46.248Z,1.40
2023-04-13T00:06:19.659Z,1.53
2023-04-13T00:08:46.896Z,1.50
2023-04-13T00:11:20.618Z,1.50
2023-04-13T00:13:54.586Z,0.80
2023-04-13T00:16:27.687Z,1.30
2023-04-13T00:19:00.536Z,1.50
2023-04-13T00:21:28.215Z,1.20
2023-04-13T00:24:01.636Z,1.13
2023-04-13T00:26:29.156Z,1.17
2023-04-13T00:28:56.125Z,1.10
2023-04-13T00:31:29.622Z,1.20
2023-04-13T00:34:02.558Z,1.17
2023-04-13T00:36:42.605Z,1.47
2023-04-13T00:39:15.584Z,1.30
2023-04-13T00:41:42.608Z,1.20
2023-04-13T00:44:15.573Z,1.33
2023-04-13T00:46:42.950Z,1.10
2023-04-13T00:49:16.635Z,1.40
2023-04-13T00:51:51.622Z,1.30
2023-04-13T00:54:18.962Z,1.03
2023-04-13T00:56:52.606Z,1.20
2023-04-13T00:59:28.831Z,0.90
2023-04-13T01:02:11.717Z,0.80
2023-04-13T01:04:38.638Z,1.10
2023-04-13T01:07:49.618Z,1.23
2023-04-13T01:10:17.312Z,0.90
2023-04-13T01:13:03.642Z,1.00
2023-04-13T01:15:43.650Z,0.90
2023-04-13T01:18:22.673Z,0.67
2023-04-13T01:20:50.715Z,1.00
2023-04-13T01:23:38.689Z,0.83
2023-04-13T01:26:13.653Z,1.20
2023-04-13T01:28:47.762Z,0.70
2023-04-13T01:31:15.852Z,1.10
2023-04-13T01:33:49.749Z,0.83
2023-04-13T01:36:29.703Z,0.90
2023-04-13T01:39:03.655Z,0.90
2023-04-13T01:41:30.398Z,1.03
2023-04-13T01:44:03.666Z,1.20
2023-04-13T01:46:40.651Z,0.90
2023-04-13T01:49:16.704Z,0.80
2023-04-13T01:51:45.469Z,1.10
2023-04-13T01:54:21.688Z,1.00
2023-04-13T01:56:55.600Z,1.00
2023-04-13T01:59:29.614Z,1.30
2023-04-13T02:02:04.743Z,0.93
2023-04-13T02:04:32.166Z,0.80
2023-04-13T02:07:05.654Z,1.53
2023-04-13T02:09:32.381Z,1.00
2023-04-13T02:12:05.696Z,0.77
2023-04-13T02:14:32.589Z,0.80
2023-04-13T02:16:59.362Z,1.40
2023-04-13T02:19:32.671Z,1.17
2023-04-13T02:21:59.899Z,1.00
2023-04-13T02:24:32.842Z,1.10
2023-04-13T02:26:59.505Z,1.10
2023-04-13T02:29:32.674Z,1.63
2023-04-13T02:31:59.907Z,1.20
2023-04-13T02:34:34.675Z,1.03
2023-04-13T02:37:09.488Z,0.97
2023-04-13T02:39:42.652Z,1.20
2023-04-13T02:42:10.581Z,1.47
2023-04-13T02:44:45.711Z,1.17
2023-04-13T02:47:19.636Z,1.23
2023-04-13T02:49:53.656Z,1.20
2023-04-13T02:52:28.727Z,1.20
2023-04-13T02:54:55.469Z,1.70
2023-04-13T02:57:28.649Z,1.40
2023-04-13T02:59:55.339Z,1.50
2023-04-13T03:02:28.746Z,0.93
2023-04-13T03:04:56.216Z,1.30
2023-04-13T03:07:31.650Z,1.37
2023-04-13T03:09:58.358Z,1.70
2023-04-13T03:12:33.688Z,1.43
2023-04-13T03:15:02.693Z,1.33
2023-04-13T03:17:39.684Z,1.67
2023-04-13T03:20:13.248Z,1.50
2023-04-13T03:22:46.740Z,1.10
2023-04-13T03:25:20.712Z,1.60
2023-04-13T03:27:53.650Z,1.67
2023-04-13T03:30:20.448Z,1.40
2023-04-13T03:32:47.166Z,1.20
2023-04-13T03:35:20.722Z,1.27
2023-04-13T03:37:54.120Z,1.20
2023-04-13T03:40:27.797Z,1.00
2023-04-13T03:42:54.507Z,1.17
2023-04-13T03:45:21.322Z,1.30
2023-04-13T03:47:54.724Z,1.10
2023-04-13T03:50:27.919Z,0.90
2023-04-13T03:52:54.658Z,1.30
2023-04-13T03:55:27.720Z,1.10
2023-04-13T03:58:01.756Z,1.43
2023-04-13T04:00:35.667Z,1.10
2023-04-13T04:03:02.584Z,1.50
2023-04-13T04:05:35.706Z,1.20
2023-04-13T04:08:08.693Z,1.13
2023-04-13T04:10:35.464Z,1.70
2023-04-13T04:13:08.722Z,1.30
2023-04-13T04:15:35.564Z,1.13
2023-04-13T04:18:08.733Z,1.40
2023-04-13T04:20:35.553Z,1.60
2023-04-13T04:23:11.780Z,1.50
2023-04-13T04:25:40.083Z,1.45
2023-04-13T04:28:13.744Z,1.60
2023-04-13T04:30:41.314Z,1.83
2023-04-13T04:33:08.077Z,1.80
2023-04-13T04:35:58.735Z,2.40
2023-04-13T04:38:33.073Z,2.10
2023-04-13T04:41:08.827Z,2.07
2023-04-13T04:43:42.674Z,1.88
2023-04-13T04:46:16.770Z,2.07
2023-04-13T04:48:51.372Z,2.30
2023-04-13T04:51:24.783Z,2.60
2023-04-13T04:53:53.098Z,3.05
2023-04-13T04:56:27.872Z,2.83
2023-04-13T04:58:54.678Z,2.30
2023-04-13T05:01:32.962Z,2.37
2023-04-13T05:04:01.753Z,2.30
2023-04-13T05:06:39.682Z,2.23
2023-04-13T05:09:06.436Z,2.50
2023-04-13T05:11:40.713Z,2.50
2023-04-13T05:14:07.431Z,2.30
2023-04-13T05:16:34.766Z,2.30
2023-04-13T05:19:08.816Z,2.50
2023-04-13T05:21:41.824Z,2.17
2023-04-13T05:24:14.743Z,2.30
2023-04-13T05:26:43.073Z,2.10
2023-04-13T05:29:16.771Z,2.27
2023-04-13T05:31:43.554Z,1.90
2023-04-13T05:34:18.744Z,2.13
2023-04-13T05:37:05.709Z,1.57
2023-04-13T05:39:38.742Z,2.07
2023-04-13T05:42:05.426Z,2.10
2023-04-13T05:44:38.779Z,2.17
2023-04-13T05:47:06.151Z,2.30
2023-04-13T05:49:39.756Z,2.20
2023-04-13T05:52:08.177Z,2.47
2023-04-13T05:54:34.829Z,2.20
2023-04-13T05:57:07.764Z,2.13
2023-04-13T05:59:34.944Z,2.43
2023-04-13T06:02:09.909Z,2.90
2023-04-13T06:04:36.877Z,1.93
2023-04-13T06:07:10.704Z,3.17
2023-04-13T06:09:37.955Z,2.20
2023-04-13T06:12:11.759Z,2.90
2023-04-13T06:14:38.766Z,2.85
2023-04-13T06:17:05.564Z,3.10
2023-04-13T06:19:38.803Z,3.60
2023-04-13T06:22:05.619Z,3.10
2023-04-13T06:24:38.768Z,3.70
2023-04-13T06:27:12.760Z,3.20
2023-04-13T06:29:46.817Z,3.47
2023-04-13T06:32:13.508Z,3.15
2023-04-13T06:34:46.828Z,3.33
2023-04-13T06:37:20.092Z,3.53
2023-04-13T06:39:53.724Z,4.10
2023-04-13T06:42:20.786Z,3.88
2023-04-13T06:44:53.844Z,4.05
2023-04-13T06:47:21.132Z,4.72
2023-04-13T06:49:54.802Z,4.60
2023-04-13T06:52:27.859Z,4.63
2023-04-13T06:54:54.778Z,5.50
2023-04-13T06:57:27.794Z,5.18
2023-04-13T06:59:54.829Z,5.18
2023-04-13T07:02:27.937Z,3.85
2023-04-13T07:04:54.918Z,4.63
2023-04-13T07:07:28.848Z,4.30
2023-04-13T07:09:55.556Z,3.95
2023-04-13T07:12:28.776Z,3.92
2023-04-13T07:14:55.455Z,4.00
2023-04-13T07:17:22.141Z,4.10
2023-04-13T07:19:56.789Z,4.20
2023-04-13T07:22:23.484Z,3.65
2023-04-13T07:24:56.825Z,3.70
2023-04-13T07:27:23.558Z,4.07
2023-04-13T07:30:00.799Z,3.33
2023-04-13T07:32:31.320Z,3.83
2023-04-13T07:35:07.748Z,3.83
2023-04-13T07:37:42.558Z,4.60
2023-04-13T07:40:15.832Z,3.70
2023-04-13T07:42:43.143Z,4.53
2023-04-13T07:45:17.899Z,4.43
2023-04-13T07:47:44.689Z,3.63
2023-04-13T07:50:18.822Z,4.80
2023-04-13T07:52:46.428Z,5.07
2023-04-13T07:55:19.820Z,4.72
2023-04-13T07:57:46.647Z,3.78
2023-04-13T08:00:20.797Z,4.65
2023-04-13T08:02:53.949Z,5.57
2023-04-13T08:05:21.286Z,5.65
2023-04-13T08:07:55.833Z,4.97
2023-04-13T08:10:24.271Z,5.25
2023-04-13T08:12:57.813Z,4.70
2023-04-13T08:15:25.095Z,4.70
2023-04-13T08:17:58.903Z,4.30
2023-04-13T08:20:25.851Z,3.53
2023-04-13T08:22:58.866Z,3.78
2023-04-13T08:25:31.801Z,2.53
2023-04-13T08:27:58.522Z,2.90
2023-04-13T08:30:31.841Z,3.55
2023-04-13T08:32:58.671Z,3.25
2023-04-13T08:35:31.859Z,3.00
2023-04-13T08:38:09.484Z,3.42
2023-04-13T08:40:49.998Z,2.90
2023-04-13T08:43:19.452Z,2.95
2023-04-13T08:45:53.847Z,2.50
2023-04-13T08:48:23.473Z,2.30
2023-04-13T08:51:00.830Z,2.40
2023-04-13T08:53:29.082Z,2.42
2023-04-13T08:56:05.873Z,2.50
2023-04-13T08:58:35.504Z,2.88
2023-04-13T09:01:09.865Z,3.45
2023-04-13T09:03:49.996Z,3.00
2023-04-13T09:06:26.032Z,2.75
2023-04-13T09:09:03.837Z,3.03
2023-04-13T09:11:30.768Z,3.33
2023-04-13T09:14:03.821Z,3.70
2023-04-13T09:16:44.875Z,3.97
2023-04-13T09:19:19.840Z,3.63
2023-04-13T09:21:52.813Z,3.88
2023-04-13T09:24:20.330Z,3.40
2023-04-13T09:26:54.811Z,3.30
2023-04-13T09:29:30.889Z,2.90
2023-04-13T09:32:03.815Z,2.42
2023-04-13T09:34:36.812Z,2.35
2023-04-13T09:37:26.795Z,1.80
2023-04-13T09:39:59.890Z,1.30
2023-04-13T09:42:27.268Z,0.88
2023-04-13T09:45:04.916Z,1.33
2023-04-13T09:47:41.256Z,1.15
2023-04-13T09:50:24.956Z,0.90
2023-04-13T09:53:16.827Z,1.20
2023-04-13T09:55:50.844Z,1.10
2023-04-13T09:58:18.022Z,1.40
2023-04-13T10:00:52.927Z,1.30
2023-04-13T10:03:22.496Z,1.27
2023-04-13T10:06:00.173Z,1.15
2023-04-13T10:08:38.583Z,1.20
2023-04-13T10:11:17.923Z,1.60
2023-04-13T10:13:51.291Z,1.60
2023-04-13T10:16:44.998Z,1.77
2023-04-13T10:19:24.891Z,2.55
2023-04-13T10:21:53.112Z,1.80
2023-04-13T10:24:27.864Z,2.20
2023-04-13T10:27:06.901Z,2.53
2023-04-13T10:29:35.468Z,2.33
2023-04-13T10:32:11.928Z,2.40
2023-04-13T10:34:39.810Z,3.50
2023-04-13T10:37:26.936Z,2.42
2023-04-13T10:40:14.962Z,2.80
2023-04-13T10:42:52.500Z,2.55
2023-04-13T10:45:32.938Z,2.80
2023-04-13T10:48:06.028Z,3.00
2023-04-13T10:50:39.850Z,3.10
2023-04-13T10:53:14.883Z,1.90
2023-04-13T10:55:47.873Z,1.70
2023-04-13T10:58:17.381Z,1.77
2023-04-13T11:00:51.872Z,1.80
2023-04-13T11:03:19.494Z,2.10
2023-04-13T11:05:53.923Z,1.77
2023-04-13T11:08:28.210Z,2.00
2023-04-13T11:11:03.883Z,1.98
2023-04-13T11:13:39.909Z,1.92
2023-04-13T11:16:13.929Z,2.28
2023-04-13T11:18:41.618Z,2.20
2023-04-13T11:21:24.878Z,2.70
2023-04-13T11:23:52.851Z,2.13
2023-04-13T11:26:37.039Z,1.95
2023-04-13T11:29:05.101Z,2.38
2023-04-13T11:31:45.946Z,2.00
2023-04-13T11:34:13.290Z,2.30
2023-04-13T11:36:56.884Z,2.10
2023-04-13T11:39:32.369Z,2.30
2023-04-13T11:42:11.837Z,1.90
2023-04-13T11:44:39.335Z,1.83
2023-04-13T11:47:13.926Z,1.75
2023-04-13T11:49:47.302Z,1.85
2023-04-13T11:52:20.983Z,1.73
2023-04-13T11:54:49.355Z,2.00
2023-04-13T11:57:24.938Z,1.80
2023-04-13T12:00:01.935Z,1.85
2023-04-13T12:02:33.325Z,1.85
2023-04-13T12:05:08.238Z,1.88
2023-04-13T12:07:40.802Z,1.75
2023-04-13T12:10:23.386Z,2.00
2023-04-13T12:16:06.173Z,1.98
2023-04-13T12:18:54.820Z,2.10
2023-04-13T12:21:29.127Z,2.00
2023-04-13T12:23:58.817Z,1.85
2023-04-13T12:29:15.980Z,1.80
2023-04-13T12:31:52.104Z,1.92
2023-04-13T12:34:27.988Z,2.00
2023-04-13T12:37:01.005Z,1.80
2023-04-13T12:39:34.162Z,1.98
2023-04-13T12:42:07.977Z,2.38
2023-04-13T12:44:34.858Z,1.95
2023-04-13T12:47:09.172Z,2.05
2023-04-13T12:49:36.140Z,2.17
2023-04-13T12:52:08.942Z,1.95
2023-04-13T12:54:35.735Z,2.08
2023-04-13T12:57:09.103Z,2.15
2023-04-13T12:59:36.083Z,1.95
2023-04-13T13:02:02.975Z,1.77
2023-04-13T13:04:37.222Z,1.80
2023-04-13T13:07:04.707Z,1.65
2023-04-13T13:09:39.076Z,1.77
2023-04-13T13:12:13.008Z,1.60
2023-04-13T13:14:46.000Z,1.50
2023-04-13T13:17:12.856Z,1.77
2023-04-13T13:19:46.242Z,1.95
2023-04-13T13:22:13.090Z,1.80
2023-04-13T13:24:46.076Z,1.70
2023-04-13T13:27:48.367Z,1.90
2023-04-13T13:30:10.991Z,1.63
2023-04-13T13:32:37.970Z,2.00
2023-04-13T13:35:14.958Z,1.70
2023-04-13T13:38:01.989Z,1.42
2023-04-13T13:40:35.077Z,2.10
2023-04-13T13:43:08.014Z,1.90
2023-04-13T13:45:40.931Z,2.17
2023-04-13T13:48:14.331Z,1.77
2023-04-13T13:50:48.063Z,1.48
2023-04-13T13:53:14.914Z,2.13
2023-04-13T13:55:49.041Z,1.70
2023-04-13T13:58:15.958Z,1.73
2023-04-13T14:00:48.988Z,1.90
2023-04-13T14:03:23.254Z,2.03
2023-04-13T14:05:50.269Z,1.60
2023-04-13T14:08:24.020Z,2.22
2023-04-13T14:10:51.237Z,1.77
2023-04-13T14:13:25.164Z,2.08
2023-04-13T14:15:52.105Z,1.90
2023-04-13T14:18:26.117Z,1.73
2023-04-13T14:20:53.473Z,1.88
2023-04-13T14:23:26.968Z,1.60
2023-04-13T14:25:53.743Z,1.95
2023-04-13T14:28:27.015Z,1.55
2023-04-13T14:30:53.833Z,1.55
2023-04-13T14:33:21.244Z,1.08
2023-04-13T14:35:55.096Z,1.50
2023-04-13T14:38:35.052Z,1.73
2023-04-13T14:41:08.026Z,1.52
2023-04-13T14:43:34.805Z,2.00
2023-04-13T14:46:10.051Z,1.83
2023-04-13T14:48:37.134Z,1.80
2023-04-13T14:51:11.054Z,1.58
2023-04-13T14:53:38.117Z,1.75
2023-04-13T14:56:12.022Z,1.80
2023-04-13T14:58:38.901Z,1.55
2023-04-13T15:01:23.060Z,1.70
2023-04-13T15:03:50.103Z,1.80
2023-04-13T15:06:24.210Z,1.60
2023-04-13T15:08:58.258Z,1.60
2023-04-13T15:11:25.371Z,1.60
2023-04-13T15:13:58.985Z,1.80
2023-04-13T15:16:26.094Z,1.60
2023-04-13T15:18:59.117Z,1.67
2023-04-13T15:21:27.860Z,1.80
2023-04-13T15:24:01.061Z,1.50
2023-04-13T15:26:27.894Z,1.40
2023-04-13T15:29:01.295Z,2.38
2023-04-13T15:31:35.196Z,1.50
2023-04-13T15:34:09.104Z,2.20
2023-04-13T15:36:38.638Z,1.38
2023-04-13T15:39:19.069Z,1.80
2023-04-13T15:41:46.393Z,1.55
2023-04-13T15:44:20.043Z,1.58
2023-04-13T15:46:48.254Z,1.35
2023-04-13T15:49:21.178Z,1.58
2023-04-13T15:51:48.100Z,1.63
2023-04-13T15:54:21.108Z,1.10
2023-04-13T15:56:47.953Z,1.38
2023-04-13T15:59:14.887Z,1.48
2023-04-13T16:01:55.299Z,1.38
2023-04-13T16:04:22.394Z,1.70
2023-04-13T16:07:11.931Z,1.30
2023-04-13T16:09:43.697Z,1.65
2023-04-13T16:12:18.077Z,1.30
2023-04-13T16:14:47.666Z,1.70
2023-04-13T16:17:24.065Z,1.52
2023-04-13T16:19:53.653Z,0.90
2023-04-13T16:22:27.063Z,1.50
2023-04-13T16:24:53.859Z,1.15
2023-04-13T16:27:27.069Z,1.20
2023-04-13T16:29:53.818Z,1.45
2023-04-13T16:32:27.361Z,1.60
2023-04-13T16:35:01.089Z,1.58
2023-04-13T16:37:49.151Z,1.15
2023-04-13T16:40:23.150Z,1.15
2023-04-13T16:42:49.878Z,1.30
2023-04-13T16:45:23.112Z,1.50
2023-04-13T16:47:52.765Z,1.42
2023-04-13T16:50:28.029Z,1.00
2023-04-13T16:53:03.064Z,1.27
2023-04-13T16:55:43.180Z,1.40
2023-04-13T16:58:12.084Z,1.30
2023-04-13T17:00:46.187Z,1.30
2023-04-13T17:03:19.519Z,1.92
2023-04-13T17:05:53.293Z,1.30
2023-04-13T17:08:20.096Z,1.42
2023-04-13T17:10:54.053Z,1.55
2023-04-13T17:13:21.035Z,1.50
2023-04-13T17:15:54.121Z,1.85
2023-04-13T17:18:20.965Z,1.40
2023-04-13T17:21:04.201Z,1.27
2023-04-13T17:23:31.654Z,1.30
2023-04-13T17:25:58.565Z,1.35
2023-04-13T17:28:32.095Z,1.58
2023-04-13T17:30:58.840Z,1.80
2023-04-13T17:33:35.106Z,1.42
2023-04-13T17:36:02.006Z,1.40
2023-04-13T17:38:35.073Z,1.30
2023-04-13T17:41:08.234Z,1.10
2023-04-13T17:43:41.165Z,1.27
2023-04-13T17:46:08.666Z,1.25
2023-04-13T17:48:42.119Z,1.30
2023-04-13T17:51:17.075Z,1.40
2023-04-13T17:53:50.081Z,1.63
2023-04-13T17:56:18.362Z,1.25
2023-04-13T17:58:45.673Z,1.60
2023-04-13T18:01:19.148Z,1.17
2023-04-13T18:03:46.747Z,1.83
2023-04-13T18:06:20.155Z,1.40
2023-04-13T18:08:46.950Z,1.50
2023-04-13T18:11:20.128Z,1.50
2023-04-13T18:13:46.834Z,1.20
2023-04-13T18:16:20.285Z,1.00
2023-04-13T18:18:47.124Z,1.70
2023-04-13T18:21:21.102Z,1.13
2023-04-13T18:23:47.890Z,1.40
2023-04-13T18:26:22.094Z,1.35
2023-04-13T18:28:48.828Z,1.60
2023-04-13T18:31:22.312Z,1.35
2023-04-13T18:33:55.140Z,1.65
2023-04-13T18:36:22.056Z,1.67
2023-04-13T18:38:55.116Z,1.40
2023-04-13T18:41:28.550Z,1.60
2023-04-13T18:44:02.419Z,1.88
2023-04-13T18:46:29.624Z,2.00
2023-04-13T18:49:03.149Z,1.73
2023-04-13T18:51:39.230Z,1.92
2023-04-13T18:54:12.158Z,1.77
2023-04-13T18:56:38.978Z,1.75
2023-04-13T18:59:12.128Z,2.22
2023-04-13T19:01:39.067Z,1.50
2023-04-13T19:04:06.136Z,1.70
2023-04-13T19:06:41.287Z,1.63
2023-04-13T19:09:08.614Z,1.70
2023-04-13T19:11:57.140Z,1.50
2023-04-13T19:14:23.845Z,2.13
2023-04-13T19:16:59.959Z,2.17
2023-04-13T19:19:27.256Z,1.85
2023-04-13T19:22:01.214Z,1.52
2023-04-13T19:24:27.948Z,1.65
2023-04-13T19:27:02.142Z,1.80
2023-04-13T19:29:30.577Z,2.03
2023-04-13T19:32:04.239Z,2.40
2023-04-13T19:34:31.412Z,2.38
2023-04-13T19:37:05.224Z,3.33
2023-04-13T19:39:39.151Z,3.97
2023-04-13T19:42:06.619Z,4.38
2023-04-13T19:44:40.186Z,3.83
2023-04-13T19:47:06.974Z,2.88
2023-04-13T19:49:40.228Z,2.85
2023-04-13T19:52:06.974Z,2.75
2023-04-13T19:54:40.254Z,2.50
2023-04-13T19:57:07.107Z,2.65
2023-04-13T19:59:40.892Z,3.55
2023-04-13T20:02:09.441Z,3.55
2023-04-13T20:04:44.279Z,3.63
2023-04-13T20:07:11.398Z,3.40
2023-04-13T20:09:45.304Z,3.60
2023-04-13T20:12:12.569Z,3.78
2023-04-13T20:14:42.338Z,4.35
2023-04-13T20:17:16.307Z,4.95
2023-04-13T20:19:49.140Z,3.47
2023-04-13T20:22:18.430Z,2.88
2023-04-13T20:24:51.234Z,3.05
2023-04-13T20:27:17.964Z,4.80
2023-04-13T20:29:51.262Z,4.00
2023-04-13T20:32:18.299Z,3.60
2023-04-13T20:34:52.214Z,3.78
2023-04-13T20:37:25.210Z,3.85
2023-04-13T20:39:58.323Z,4.43
2023-04-13T20:42:31.446Z,4.40
2023-04-13T20:44:58.744Z,4.68
2023-04-13T20:47:35.242Z,4.60
2023-04-13T20:50:09.300Z,4.22
2023-04-13T20:52:36.948Z,4.40
2023-04-13T20:55:11.220Z,4.27
2023-04-13T20:57:42.401Z,4.10
2023-04-13T21:00:20.228Z,4.00
2023-04-13T21:02:47.280Z,4.20
2023-04-13T21:05:21.223Z,4.23
2023-04-13T21:07:48.631Z,4.40
2023-04-13T21:10:23.200Z,4.57
2023-04-13T21:12:56.253Z,4.83
2023-04-13T21:15:29.253Z,4.00
2023-04-13T21:17:56.276Z,5.97
2023-04-13T21:20:30.354Z,5.23
2023-04-13T21:22:57.178Z,5.57
2023-04-13T21:25:30.334Z,6.03
2023-04-13T21:27:57.054Z,5.60
2023-04-13T21:30:30.235Z,5.73
2023-04-13T21:32:56.992Z,6.07
2023-04-13T21:35:30.280Z,5.37
2023-04-13T21:38:03.184Z,4.40
2023-04-13T21:40:36.511Z,4.70
2023-04-13T21:43:10.237Z,4.93
2023-04-13T21:45:37.157Z,5.43
2023-04-13T21:48:10.260Z,5.13
2023-04-13T21:50:43.261Z,5.50
2023-04-13T21:53:16.256Z,4.57
2023-04-13T21:55:49.156Z,4.07
2023-04-13T21:58:16.261Z,4.27
2023-04-13T22:00:49.269Z,3.70
2023-04-13T22:03:17.274Z,3.73
2023-04-13T22:05:50.240Z,3.90
2023-04-13T22:08:17.056Z,3.00
2023-04-13T22:10:50.264Z,2.13
2023-04-13T22:13:17.121Z,1.90
2023-04-13T22:15:50.344Z,1.70
2023-04-13T22:18:17.211Z,1.57
2023-04-13T22:20:51.262Z,2.00
2023-04-13T22:23:18.091Z,1.70
2023-04-13T22:26:05.323Z,1.70
2023-04-13T22:28:39.285Z,1.40
2023-04-13T22:31:14.310Z,2.47
2023-04-13T22:33:41.154Z,1.63
2023-04-13T22:36:27.417Z,1.87
2023-04-13T22:39:00.522Z,1.93
2023-04-13T22:41:41.233Z,1.77
2023-04-13T22:44:08.005Z,2.17
2023-04-13T22:46:41.279Z,1.80
2023-04-13T22:49:08.022Z,1.93
2023-04-13T22:51:47.353Z,2.10
2023-04-13T22:54:14.151Z,2.10
2023-04-13T22:56:40.855Z,1.97
2023-04-13T22:59:14.268Z,1.80
2023-04-13T23:01:47.408Z,1.60
2023-04-13T23:04:21.347Z,1.70
2023-04-13T23:06:54.210Z,1.60
2023-04-13T23:09:21.080Z,1.73
2023-04-13T23:11:54.289Z,1.60
2023-04-13T23:14:29.194Z,1.70
2023-04-13T23:16:56.228Z,1.80
2023-04-13T23:19:29.315Z,1.80
2023-04-13T23:22:03.220Z,1.90
2023-04-13T23:24:30.024Z,1.70
2023-04-13T23:27:04.206Z,1.83
2023-04-13T23:29:31.250Z,2.67
2023-04-13T23:32:04.294Z,2.23
2023-04-13T23:34:31.555Z,2.47
2023-04-13T23:37:05.480Z,2.90
2023-04-13T23:39:40.295Z,3.00
2023-04-13T23:42:13.695Z,2.87
2023-04-13T23:44:40.717Z,2.70
2023-04-13T23:47:14.396Z,2.93
2023-04-13T23:49:42.018Z,3.23
2023-04-13T23:52:15.289Z,3.30
2023-04-13T23:54:48.293Z,3.07
2023-04-13T23:57:21.226Z,3.20
2023-04-13T23:59:48.068Z,4.03
